Time;durP1;ratioP1;P1;durP2;ratioP2;P2;SDS_P1;SDS_P2;PMS_P1;PMS_P2;Temp;Humidity;BMP_temperature;BMP_pressure;BME280_temperature;BME280_humidity;BME280_pressure;Samples;Min_cycle;Max_cycle;Signal;HPM_P1;HPM_P2
2022/08/07 00:01:41;;;;;;;5.50;5.10;;;14.00;99.90;;;;;;5071876;28;20185;-64
2022/08/07 00:04:07;;;;;;;5.27;4.97;;;13.90;99.90;;;;;;5071263;28;20205;-65
2022/08/07 00:06:33;;;;;;;5.70;5.07;;;13.90;99.90;;;;;;5071950;28;20619;-62
2022/08/07 00:08:59;;;;;;;5.50;5.10;;;13.90;99.90;;;;;;5071382;28;20715;-64
2022/08/07 00:11:25;;;;;;;5.40;5.10;;;13.90;99.90;;;;;;5071836;28;20220;-63
2022/08/07 00:13:50;;;;;;;5.50;5.00;;;13.80;99.90;;;;;;5071465;28;20194;-65
2022/08/07 00:16:16;;;;;;;4.83;4.60;;;13.80;99.90;;;;;;5071329;28;20272;-64
2022/08/07 00:18:42;;;;;;;5.97;5.60;;;13.80;99.90;;;;;;5071686;28;20185;-63
2022/08/07 00:21:08;;;;;;;5.87;5.57;;;13.70;99.90;;;;;;5070742;28;20182;-63
2022/08/07 00:23:37;;;;;;;5.63;5.23;;;13.60;99.90;;;;;;5071469;28;20254;-64
2022/08/07 00:26:04;;;;;;;5.60;5.20;;;13.70;99.90;;;;;;5071440;28;20194;-64
2022/08/07 00:28:31;;;;;;;5.40;5.10;;;13.70;99.90;;;;;;5071548;28;20265;-63
2022/08/07 00:30:57;;;;;;;6.47;5.87;;;13.70;99.90;;;;;;5071442;28;20162;-64
2022/08/07 00:33:27;;;;;;;5.20;4.80;;;13.60;99.90;;;;;;5071062;28;20547;-64
2022/08/07 00:35:54;;;;;;;5.80;5.20;;;13.60;99.90;;;;;;5071139;28;20210;-64
2022/08/07 00:38:19;;;;;;;5.57;5.27;;;13.60;99.90;;;;;;5071092;28;20182;-65
2022/08/07 00:40:45;;;;;;;5.67;5.27;;;13.50;99.90;;;;;;5071221;28;20180;-64
2022/08/07 00:43:12;;;;;;;6.40;5.90;;;13.50;99.90;;;;;;5071198;28;20178;-63
2022/08/07 00:45:39;;;;;;;6.17;5.63;;;13.50;99.90;;;;;;5070966;28;20281;-64
2022/08/07 00:48:05;;;;;;;5.80;5.40;;;13.40;99.90;;;;;;5071151;28;20166;-64
2022/08/07 00:50:32;;;;;;;5.77;5.40;;;13.30;99.90;;;;;;5071373;28;20174;-65
2022/08/07 00:52:57;;;;;;;5.83;5.30;;;13.30;99.90;;;;;;5071158;28;20178;-64
2022/08/07 00:55:23;;;;;;;5.40;5.10;;;13.30;99.90;;;;;;5070816;28;20206;-65
2022/08/07 00:57:50;;;;;;;5.60;5.30;;;13.30;99.90;;;;;;5071102;28;20224;-65
2022/08/07 01:00:17;;;;;;;5.50;5.10;;;13.20;99.90;;;;;;5070980;28;20261;-65
2022/08/07 01:02:44;;;;;;;5.80;5.40;;;13.20;99.90;;;;;;5071216;28;20169;-65
2022/08/07 01:05:11;;;;;;;6.00;5.50;;;13.20;99.90;;;;;;5070522;28;20202;-64
2022/08/07 01:07:37;;;;;;;5.40;5.10;;;13.10;99.90;;;;;;5071165;28;20213;-64
2022/08/07 01:10:03;;;;;;;4.97;4.67;;;13.10;99.90;;;;;;5071194;28;20610;-64
2022/08/07 01:12:29;;;;;;;5.43;5.03;;;13.10;99.90;;;;;;5070896;28;20252;-64
2022/08/07 01:14:58;;;;;;;5.90;5.43;;;13.10;99.90;;;;;;5070365;28;20210;-63
2022/08/07 01:17:25;;;;;;;5.77;5.37;;;13.10;99.90;;;;;;5070896;28;20201;-65
2022/08/07 01:19:53;;;;;;;6.27;5.80;;;13.00;99.90;;;;;;5072302;28;20178;-64
2022/08/07 01:22:20;;;;;;;5.97;5.57;;;13.00;99.90;;;;;;5074777;28;20174;-65
2022/08/07 01:24:46;;;;;;;5.90;5.27;;;12.90;99.90;;;;;;5074407;28;20296;-65
2022/08/07 01:27:12;;;;;;;5.50;5.13;;;12.90;99.90;;;;;;5074952;28;20177;-64
2022/08/07 01:29:39;;;;;;;5.90;5.40;;;12.90;99.90;;;;;;5074729;28;20615;-65
2022/08/07 01:32:05;;;;;;;6.27;5.80;;;12.90;99.90;;;;;;5074800;28;20643;-64
2022/08/07 01:34:31;;;;;;;6.40;5.70;;;12.80;99.90;;;;;;5074054;28;20529;-65
2022/08/07 01:36:57;;;;;;;5.87;5.57;;;12.80;99.90;;;;;;5074717;28;20535;-65
2022/08/07 01:39:24;;;;;;;6.20;5.60;;;12.80;99.90;;;;;;5074449;28;20232;-64
2022/08/07 01:41:50;;;;;;;6.70;6.20;;;12.70;99.90;;;;;;5074639;28;20170;-64
2022/08/07 01:44:16;;;;;;;6.30;5.90;;;12.70;99.90;;;;;;5074003;28;20675;-63
2022/08/07 01:46:42;;;;;;;6.83;6.20;;;12.60;99.90;;;;;;5074568;28;20174;-63
2022/08/07 01:49:11;;;;;;;8.87;6.27;;;12.60;99.90;;;;;;5074612;28;20178;-64
2022/08/07 01:51:38;;;;;;;7.43;6.80;;;12.60;99.90;;;;;;5074347;28;20202;-64
2022/08/07 01:54:08;;;;;;;9.40;6.70;;;12.60;99.90;;;;;;5074134;28;20174;-64
2022/08/07 01:56:42;;;;;;;6.33;5.93;;;12.60;99.90;;;;;;5074174;28;20190;-64
2022/08/07 01:59:42;;;;;;;7.20;6.60;;;12.60;99.90;;;;;;5074400;28;20269;-64
2022/08/07 02:02:16;;;;;;;6.43;6.03;;;12.40;99.90;;;;;;5067583;28;20225;-64
2022/08/07 02:05:01;;;;;;;6.40;5.90;;;12.30;99.90;;;;;;5073762;28;20305;-64
2022/08/07 02:07:32;;;;;;;7.40;6.60;;;12.30;99.90;;;;;;5074069;28;20177;-64
2022/08/07 02:10:00;;;;;;;6.90;6.33;;;12.40;99.90;;;;;;5066819;28;20503;-65
2022/08/07 02:12:29;;;;;;;6.87;6.20;;;12.40;99.90;;;;;;5074109;28;20227;-64
2022/08/07 02:14:57;;;;;;;6.67;6.17;;;12.40;99.90;;;;;;5073458;28;20311;-64
2022/08/07 02:17:24;;;;;;;6.63;6.23;;;12.30;99.90;;;;;;5074049;28;20194;-64
2022/08/07 02:19:52;;;;;;;6.63;6.23;;;12.20;99.90;;;;;;5073936;28;20182;-65
2022/08/07 02:22:19;;;;;;;7.20;6.50;;;12.30;99.90;;;;;;5073362;28;20196;-64
2022/08/07 02:24:47;;;;;;;7.23;6.60;;;12.30;99.90;;;;;;5073555;28;20283;-64
2022/08/07 02:27:17;;;;;;;6.80;6.30;;;12.30;99.90;;;;;;5073773;28;20170;-62
2022/08/07 02:29:44;;;;;;;6.67;6.27;;;12.30;99.90;;;;;;5073528;28;20561;-64
2022/08/07 02:32:11;;;;;;;8.00;7.30;;;12.30;99.90;;;;;;5073665;28;20636;-63
2022/08/07 02:34:38;;;;;;;6.80;6.40;;;12.30;99.90;;;;;;5073041;28;20233;-63
2022/08/07 02:37:07;;;;;;;7.50;6.80;;;12.30;99.90;;;;;;5073555;28;20231;-61
2022/08/07 02:39:38;;;;;;;7.17;6.63;;;12.10;99.90;;;;;;5073819;28;20193;-64
2022/08/07 02:42:05;;;;;;;6.80;6.17;;;12.00;99.90;;;;;;5066016;28;20173;-63
2022/08/07 02:44:31;;;;;;;7.37;6.63;;;12.00;99.90;;;;;;5073191;28;20194;-61
2022/08/07 02:46:59;;;;;;;7.53;6.93;;;11.90;99.90;;;;;;5072018;28;20174;-65
2022/08/07 02:49:25;;;;;;;7.57;6.87;;;11.90;99.90;;;;;;5073530;28;20375;-65
2022/08/07 02:51:53;;;;;;;7.20;6.70;;;12.00;99.90;;;;;;5073035;28;20186;-64
2022/08/07 02:54:22;;;;;;;7.50;6.80;;;11.90;99.90;;;;;;5072801;28;20463;-65
2022/08/07 02:56:48;;;;;;;7.53;6.87;;;11.90;99.90;;;;;;5073001;28;20213;-64
2022/08/07 02:59:17;;;;;;;7.53;6.87;;;11.80;99.90;;;;;;5073472;28;20208;-65
2022/08/07 03:01:44;;;;;;;7.40;6.90;;;11.90;99.90;;;;;;5072911;28;20177;-65
2022/08/07 03:04:12;;;;;;;7.60;6.60;;;11.90;99.90;;;;;;5072665;28;20198;-65
2022/08/07 03:06:38;;;;;;;6.77;6.20;;;11.80;99.90;;;;;;5073044;28;20189;-61
2022/08/07 03:09:06;;;;;;;7.30;6.70;;;11.90;99.90;;;;;;5072920;28;20183;-62
2022/08/07 03:11:34;;;;;;;7.17;6.57;;;11.90;99.90;;;;;;5073084;28;20655;-62
2022/08/07 03:14:02;;;;;;;7.70;7.00;;;12.00;99.90;;;;;;5072441;28;20182;-65
2022/08/07 03:16:29;;;;;;;7.60;6.93;;;11.80;99.90;;;;;;5072764;28;20819;-64
2022/08/07 03:18:56;;;;;;;7.43;6.87;;;11.80;99.90;;;;;;5072602;28;20193;-65
2022/08/07 03:21:22;;;;;;;7.33;6.80;;;11.70;99.90;;;;;;5072033;28;20539;-64
2022/08/07 03:23:50;;;;;;;7.60;7.00;;;11.60;99.90;;;;;;5072207;28;20402;-64
2022/08/07 03:26:18;;;;;;;9.17;7.40;;;11.50;99.90;;;;;;5065028;28;20198;-64
2022/08/07 03:28:45;;;;;;;7.80;7.10;;;11.50;99.90;;;;;;5072432;28;20178;-65
2022/08/07 03:31:20;;;;;;;7.57;6.97;;;11.60;99.90;;;;;;5072474;28;20171;-62
2022/08/07 03:33:48;;;;;;;8.13;7.20;;;11.60;99.90;;;;;;5072208;28;20315;-63
2022/08/07 03:36:15;;;;;;;8.03;7.33;;;11.50;99.90;;;;;;5064313;28;20225;-63
2022/08/07 03:38:41;;;;;;;7.80;7.20;;;11.50;99.90;;;;;;5072247;28;20273;-64
2022/08/07 03:41:08;;;;;;;7.67;7.00;;;11.40;99.90;;;;;;5072239;28;20178;-64
2022/08/07 03:43:34;;;;;;;8.03;7.33;;;11.40;99.90;;;;;;5071340;28;20273;-64
2022/08/07 03:46:02;;;;;;;7.83;7.27;;;11.40;99.90;;;;;;5072045;28;20240;-64
2022/08/07 03:48:28;;;;;;;7.67;7.07;;;11.40;99.90;;;;;;5072133;28;20170;-65
2022/08/07 03:50:56;;;;;;;8.27;7.67;;;11.50;99.90;;;;;;5072008;28;20186;-64
2022/08/07 03:53:21;;;;;;;8.03;7.40;;;11.60;99.90;;;;;;5064346;28;20174;-64
2022/08/07 03:55:49;;;;;;;8.33;7.63;;;11.60;99.90;;;;;;5071982;28;20194;-61
2022/08/07 03:58:17;;;;;;;9.47;8.17;;;11.60;99.90;;;;;;5071833;28;20708;-65
2022/08/07 04:00:45;;;;;;;8.10;7.40;;;11.60;99.90;;;;;;5071917;28;20179;-65
2022/08/07 04:03:11;;;;;;;8.10;7.40;;;11.50;99.90;;;;;;5071782;28;20173;-60
2022/08/07 04:05:36;;;;;;;8.47;7.77;;;11.60;99.90;;;;;;5071510;28;20205;-65
2022/08/07 04:08:03;;;;;;;8.43;7.73;;;11.60;99.90;;;;;;5071680;28;20628;-64
2022/08/07 04:10:30;;;;;;;10.20;8.10;;;11.60;99.90;;;;;;5072195;28;20178;-64
2022/08/07 04:12:56;;;;;;;8.17;7.57;;;11.60;99.90;;;;;;5072062;28;20639;-62
2022/08/07 04:15:22;;;;;;;8.33;7.73;;;11.60;99.90;;;;;;5071291;28;20202;-65
2022/08/07 04:17:48;;;;;;;8.40;7.40;;;11.50;99.90;;;;;;5071764;28;20173;-64
2022/08/07 04:20:14;;;;;;;8.20;7.50;;;11.40;99.90;;;;;;5071416;28;20178;-62
2022/08/07 04:22:40;;;;;;;8.23;7.53;;;11.40;99.90;;;;;;5071550;28;20172;-61
2022/08/07 04:25:07;;;;;;;8.20;7.60;;;11.40;99.90;;;;;;5071209;28;20689;-63
2022/08/07 04:27:33;;;;;;;10.40;7.57;;;11.40;99.90;;;;;;5071107;28;20532;-60
2022/08/07 04:29:59;;;;;;;9.00;8.20;;;11.50;99.90;;;;;;5071494;28;20177;-61
2022/08/07 04:32:25;;;;;;;8.77;7.97;;;11.60;99.90;;;;;;5071633;28;20182;-64
2022/08/07 04:34:52;;;;;;;7.77;7.07;;;11.50;99.90;;;;;;5071694;28;20222;-63
2022/08/07 04:37:19;;;;;;;8.30;7.60;;;11.60;99.90;;;;;;5071367;28;20174;-61
2022/08/07 04:39:45;;;;;;;8.83;8.13;;;11.60;99.90;;;;;;5071335;28;20535;-64
2022/08/07 04:42:11;;;;;;;8.50;7.80;;;11.60;99.90;;;;;;5071540;28;20184;-64
2022/08/07 04:44:37;;;;;;;9.33;7.90;;;11.70;99.90;;;;;;5070717;28;20295;-65
2022/08/07 04:47:17;;;;;;;8.73;8.03;;;11.70;99.90;;;;;;5070059;28;20654;-65
2022/08/07 04:49:50;;;;;;;8.43;7.60;;;11.80;99.90;;;;;;5063993;28;20174;-65
2022/08/07 04:52:37;;;;;;;8.30;7.70;;;11.90;99.90;;;;;;5071190;28;20256;-61
2022/08/07 04:55:09;;;;;;;8.83;8.13;;;11.80;99.90;;;;;;5070070;28;20655;-61
2022/08/07 04:57:41;;;;;;;8.50;7.70;;;11.90;99.90;;;;;;5069750;28;20198;-62
2022/08/07 05:00:17;;;;;;;8.83;8.13;;;12.00;99.90;;;;;;5071267;28;20235;-64
2022/08/07 05:03:35;;;;;;;10.03;8.57;;;12.00;99.90;;;;;;5070816;28;20646;-64
2022/08/07 05:06:15;;;;;;;8.97;8.13;;;12.20;99.90;;;;;;5065291;28;20576;-64
2022/08/07 05:08:55;;;;;;;8.63;8.03;;;12.20;99.90;;;;;;5070886;28;20214;-64
2022/08/07 05:11:45;;;;;;;8.77;7.93;;;12.20;99.90;;;;;;5071115;28;20647;-65
2022/08/07 05:14:21;;;;;;;8.73;8.03;;;12.30;99.90;;;;;;5070180;28;20672;-64
2022/08/07 05:16:49;;;;;;;9.70;8.80;;;12.40;99.90;;;;;;5070848;28;20659;-65
2022/08/07 05:19:19;;;;;;;8.57;7.87;;;12.50;99.90;;;;;;5070797;28;20720;-64
2022/08/07 05:21:54;;;;;;;9.13;7.93;;;12.60;99.90;;;;;;5070721;28;20539;-65
2022/08/07 05:24:22;;;;;;;8.50;7.80;;;12.70;99.90;;;;;;5070466;28;20247;-62
2022/08/07 05:26:52;;;;;;;7.60;7.00;;;12.90;99.90;;;;;;5070581;28;20170;-63
2022/08/07 05:29:20;;;;;;;9.33;8.23;;;13.00;99.90;;;;;;5070899;28;20170;-63
2022/08/07 05:31:46;;;;;;;7.90;7.30;;;13.00;99.90;;;;;;5070548;28;20185;-65
2022/08/07 05:34:15;;;;;;;8.37;7.73;;;13.10;99.90;;;;;;5070350;28;20178;-63
2022/08/07 05:36:49;;;;;;;9.00;8.20;;;13.10;99.90;;;;;;5070597;28;20723;-63
2022/08/07 05:39:16;;;;;;;7.90;6.90;;;13.20;99.90;;;;;;5071016;28;20180;-64
2022/08/07 05:41:42;;;;;;;7.80;7.10;;;13.30;99.90;;;;;;5070908;28;20190;-64
2022/08/07 05:44:11;;;;;;;7.70;7.07;;;13.50;99.90;;;;;;5071287;28;20476;-64
2022/08/07 05:46:37;;;;;;;8.50;7.60;;;13.60;99.90;;;;;;5070954;28;20170;-64
2022/08/07 05:49:06;;;;;;;8.63;7.13;;;13.90;99.90;;;;;;5070738;28;20170;-64
2022/08/07 05:51:31;;;;;;;6.63;6.20;;;14.20;99.90;;;;;;5070797;28;20213;-64
2022/08/07 05:53:57;;;;;;;5.97;5.57;;;14.60;99.90;;;;;;5070166;28;20210;-64
2022/08/07 05:56:23;;;;;;;6.10;5.70;;;15.00;99.90;;;;;;5070439;28;20202;-64
2022/08/07 05:58:49;;;;;;;6.13;5.70;;;15.40;99.90;;;;;;5069184;28;20174;-64
2022/08/07 06:01:18;;;;;;;5.73;5.33;;;15.80;99.90;;;;;;5070531;28;20243;-65
2022/08/07 06:03:50;;;;;;;5.70;5.30;;;16.20;99.90;;;;;;5069458;28;20280;-64
2022/08/07 06:06:17;;;;;;;7.20;5.27;;;16.50;99.90;;;;;;5072380;28;20284;-64
2022/08/07 06:08:43;;;;;;;6.30;5.70;;;16.90;99.90;;;;;;5073700;28;20526;-65
2022/08/07 06:11:10;;;;;;;5.73;5.23;;;17.10;99.90;;;;;;5074080;28;20261;-64
2022/08/07 06:13:36;;;;;;;5.73;5.23;;;17.30;99.90;;;;;;5073664;28;20672;-65
2022/08/07 06:16:02;;;;;;;5.37;4.97;;;17.60;99.90;;;;;;5074030;28;20201;-65
2022/08/07 06:18:30;;;;;;;5.57;5.17;;;17.90;99.90;;;;;;5073624;28;20174;-65
2022/08/07 06:20:59;;;;;;;5.23;4.83;;;18.40;99.90;;;;;;5064464;28;20174;-66
2022/08/07 06:23:24;;;;;;;4.90;4.33;;;19.10;99.90;;;;;;5056468;28;20178;-65
2022/08/07 06:25:50;;;;;;;5.80;4.50;;;20.00;99.90;;;;;;5073442;28;20198;-65
2022/08/07 06:28:16;;;;;;;4.72;3.92;;;20.80;99.90;;;;;;5073668;28;20173;-65
2022/08/07 06:30:42;;;;;;;4.40;4.00;;;21.40;99.90;;;;;;5073488;28;20177;-65
2022/08/07 06:33:08;;;;;;;5.25;4.75;;;21.70;99.90;;;;;;5073693;28;20210;-65
2022/08/07 06:35:35;;;;;;;4.68;4.30;;;22.10;99.90;;;;;;5072997;28;20221;-64
2022/08/07 06:38:01;;;;;;;5.07;4.55;;;22.50;99.90;;;;;;5073638;28;20181;-65
2022/08/07 06:40:29;;;;;;;4.63;4.22;;;22.70;99.90;;;;;;5073211;28;20565;-66
2022/08/07 06:42:55;;;;;;;4.82;4.43;;;22.90;99.90;;;;;;5073412;28;20592;-65
2022/08/07 06:45:23;;;;;;;4.00;3.72;;;23.10;99.90;;;;;;5073070;28;20202;-65
2022/08/07 06:47:49;;;;;;;4.22;3.92;;;23.10;99.90;;;;;;5073207;28;20181;-65
2022/08/07 06:50:15;;;;;;;4.13;3.78;;;23.40;99.90;;;;;;5073324;28;20170;-65
2022/08/07 06:52:45;;;;;;;4.25;3.85;;;23.50;99.90;;;;;;5072903;28;20193;-65
2022/08/07 06:55:16;;;;;;;4.68;4.28;;;23.60;99.90;;;;;;5073175;28;20563;-65
2022/08/07 06:57:43;;;;;;;4.72;4.00;;;24.00;99.90;;;;;;5072923;28;20178;-64
2022/08/07 07:00:10;;;;;;;3.80;3.40;;;24.50;99.90;;;;;;5065313;28;20263;-64
2022/08/07 07:02:36;;;;;;;3.97;3.67;;;24.60;99.90;;;;;;5072870;28;20632;-64
2022/08/07 07:05:03;;;;;;;4.45;4.05;;;24.50;99.90;;;;;;5072401;28;20293;-65
2022/08/07 07:07:29;;;;;;;5.13;3.80;;;24.80;99.90;;;;;;5073271;28;20185;-64
2022/08/07 07:09:54;;;;;;;4.25;3.63;;;25.40;99.90;;;;;;5072939;28;20643;-64
2022/08/07 07:12:44;;;;;;;3.60;3.40;;;25.80;99.90;;;;;;5065183;28;20232;-65
2022/08/07 07:15:12;;;;;;;5.10;3.15;;;26.10;99.90;;;;;;5072623;28;20198;-64
2022/08/07 07:17:51;;;;;;;3.38;3.08;;;26.10;99.90;;;;;;5071808;28;20661;-65
2022/08/07 07:20:24;;;;;;;3.38;3.08;;;26.30;99.90;;;;;;5072623;28;20260;-65
2022/08/07 07:22:51;;;;;;;3.35;3.15;;;26.60;99.90;;;;;;5072559;28;20174;-64
2022/08/07 07:25:18;;;;;;;3.50;3.20;;;26.70;99.90;;;;;;5072342;28;20225;-63
2022/08/07 07:27:55;;;;;;;3.35;3.15;;;26.90;99.90;;;;;;5072699;28;20632;-65
2022/08/07 07:30:24;;;;;;;3.25;3.05;;;27.10;99.90;;;;;;5072406;28;20636;-66
2022/08/07 07:32:52;;;;;;;4.10;3.00;;;27.30;99.90;;;;;;5072555;28;20166;-64
2022/08/07 07:35:20;;;;;;;2.92;2.72;;;27.70;99.90;;;;;;5072085;28;20300;-64
2022/08/07 07:37:48;;;;;;;3.42;3.13;;;27.80;99.90;;;;;;5072135;28;20174;-64
2022/08/07 07:40:18;;;;;;;3.00;2.80;;;27.80;99.90;;;;;;5072465;28;20166;-63
2022/08/07 07:42:46;;;;;;;3.20;2.90;;;28.00;99.90;;;;;;5072026;28;20192;-65
2022/08/07 07:45:15;;;;;;;3.42;3.10;;;28.20;99.90;;;;;;5071734;28;20209;-63
2022/08/07 07:47:43;;;;;;;3.92;3.72;;;28.20;99.90;;;;;;5072034;28;20660;-64
2022/08/07 07:50:10;;;;;;;3.13;2.92;;;28.00;99.90;;;;;;5066108;28;20182;-64
2022/08/07 07:52:37;;;;;;;3.00;2.80;;;27.80;99.90;;;;;;5071917;28;20174;-64
2022/08/07 07:55:04;;;;;;;3.00;2.80;;;28.10;99.90;;;;;;5072076;28;20568;-64
2022/08/07 07:57:32;;;;;;;3.00;2.80;;;28.30;99.90;;;;;;5072276;28;20177;-65
2022/08/07 07:59:59;;;;;;;2.63;2.53;;;28.50;99.90;;;;;;5071558;28;20277;-64
2022/08/07 08:02:26;;;;;;;2.63;2.42;;;28.60;99.90;;;;;;5071932;28;20190;-65
2022/08/07 08:04:53;;;;;;;2.60;2.50;;;29.10;99.90;;;;;;5071036;28;20218;-64
2022/08/07 08:07:19;;;;;;;2.78;2.58;;;29.30;97.30;;;;;;5071912;28;20183;-65
2022/08/07 08:09:49;;;;;;;2.92;2.72;;;29.40;95.70;;;;;;5071848;28;20182;-64
2022/08/07 08:12:15;;;;;;;2.67;2.30;;;29.30;96.40;;;;;;5072241;28;20683;-63
2022/08/07 08:14:41;;;;;;;2.60;2.40;;;29.60;97.60;;;;;;5071092;28;20201;-64
2022/08/07 08:17:11;;;;;;;3.78;2.72;;;29.80;96.00;;;;;;5071746;28;20174;-65
2022/08/07 08:19:39;;;;;;;2.60;2.40;;;30.00;95.20;;;;;;5071795;28;20200;-64
2022/08/07 08:27:38;;;;;;;2.47;2.38;;;29.20;91.20;;;;;;5071019;28;20212;-65
2022/08/07 08:30:06;;;;;;;2.78;2.60;;;29.40;91.00;;;;;;5071401;28;20173;-65
2022/08/07 08:32:35;;;;;;;2.33;2.22;;;29.60;92.00;;;;;;5071173;28;20174;-64
2022/08/07 08:35:02;;;;;;;2.50;2.30;;;29.80;92.50;;;;;;5070905;28;20220;-64
2022/08/07 08:37:33;;;;;;;2.53;2.25;;;30.20;90.50;;;;;;5071154;28;20173;-65
2022/08/07 08:39:59;;;;;;;4.10;2.30;;;30.40;90.60;;;;;;5064919;28;20184;-64
2022/08/07 08:42:32;;;;;;;2.60;2.17;;;30.60;90.40;;;;;;5071235;28;20186;-64
2022/08/07 08:45:27;;;;;;;2.50;2.30;;;31.00;90.20;;;;;;5070812;28;20233;-64
2022/08/07 08:48:26;;;;;;;2.70;2.20;;;31.20;87.70;;;;;;5071316;28;20666;-65
2022/08/07 08:50:59;;;;;;;2.00;1.90;;;31.20;87.30;;;;;;5070918;28;20268;-65
2022/08/07 08:53:56;;;;;;;2.10;2.00;;;31.00;80.30;;;;;;5071128;28;20178;-66
2022/08/07 08:56:42;;;;;;;2.33;2.22;;;30.60;84.40;;;;;;5061809;28;20217;-65
2022/08/07 08:59:31;;;;;;;2.88;2.20;;;30.60;80.00;;;;;;5063901;28;20182;-65
2022/08/07 09:02:05;;;;;;;2.58;2.28;;;30.70;83.30;;;;;;5070761;28;20547;-65
2022/08/07 09:05:03;;;;;;;2.35;2.15;;;30.30;79.80;;;;;;5070528;28;20247;-65
2022/08/07 09:08:02;;;;;;;3.03;2.20;;;30.20;77.40;;;;;;5071275;28;20614;-66
2022/08/07 09:10:53;;;;;;;2.42;2.30;;;30.20;82.50;;;;;;5069978;28;20178;-64
2022/08/07 09:13:38;;;;;;;2.30;2.20;;;30.60;81.90;;;;;;5070164;28;20199;-64
2022/08/07 09:16:44;;;;;;;2.88;2.33;;;30.50;82.50;;;;;;5071491;28;20186;-64
2022/08/07 09:19:21;;;;;;;2.75;2.55;;;30.40;79.30;;;;;;5069134;28;20223;-64
2022/08/07 09:22:04;;;;;;;2.35;2.17;;;30.50;80.20;;;;;;5070576;28;20216;-64
2022/08/07 09:25:08;;;;;;;2.72;2.58;;;30.40;83.00;;;;;;5070084;28;20198;-64
2022/08/07 09:28:06;;;;;;;4.10;2.65;;;30.70;82.10;;;;;;5071506;28;20330;-65
2022/08/07 09:30:43;;;;;;;2.45;2.00;;;30.40;79.60;;;;;;5071355;28;20168;-64
2022/08/07 09:33:19;;;;;;;3.22;2.22;;;30.50;85.00;;;;;;5070890;28;20166;-64
2022/08/07 09:36:08;;;;;;;4.20;2.50;;;30.50;78.60;;;;;;5070955;28;20291;-64
2022/08/07 09:38:52;;;;;;;4.32;2.78;;;30.50;77.20;;;;;;5071264;28;20241;-64
2022/08/07 09:41:32;;;;;;;2.80;2.60;;;30.60;74.30;;;;;;5073505;28;20640;-64
2022/08/07 09:44:34;;;;;;;2.58;2.40;;;30.40;78.60;;;;;;5074753;28;20287;-64
2022/08/07 09:47:24;;;;;;;2.65;2.45;;;30.40;75.70;;;;;;5075187;28;20230;-64
2022/08/07 09:50:19;;;;;;;2.70;2.58;;;30.30;82.10;;;;;;5074680;28;20167;-65
2022/08/07 09:52:56;;;;;;;2.42;2.33;;;30.50;76.40;;;;;;5069465;28;20187;-64
2022/08/07 09:55:49;;;;;;;2.90;2.70;;;30.30;80.80;;;;;;5074313;28;20201;-64
2022/08/07 09:58:28;;;;;;;3.17;2.72;;;30.40;78.30;;;;;;5074950;28;20185;-64
2022/08/07 10:01:14;;;;;;;3.95;2.58;;;30.30;71.60;;;;;;5074735;28;20249;-64
2022/08/07 10:04:04;;;;;;;3.92;2.72;;;30.00;75.90;;;;;;5074544;28;20170;-68
2022/08/07 10:07:12;;;;;;;3.08;2.53;;;30.00;73.80;;;;;;5074633;28;20272;-64
2022/08/07 10:10:05;;;;;;;2.30;2.20;;;29.80;71.30;;;;;;5074566;28;20606;-65
2022/08/07 10:13:06;;;;;;;3.00;2.80;;;30.00;70.50;;;;;;5074725;28;20210;-64
2022/08/07 10:15:42;;;;;;;5.28;2.83;;;30.20;69.60;;;;;;5074223;28;20567;-66
2022/08/07 10:18:29;;;;;;;2.60;2.40;;;30.20;68.40;;;;;;5074648;28;20176;-66
2022/08/07 10:21:16;;;;;;;2.17;2.08;;;30.40;71.00;;;;;;5074596;28;20174;-65
2022/08/07 10:24:03;;;;;;;2.20;2.00;;;30.40;68.10;;;;;;5074104;28;20182;-66
2022/08/07 10:26:49;;;;;;;2.35;2.17;;;30.10;67.90;;;;;;5074534;28;20244;-65
2022/08/07 10:29:34;;;;;;;2.30;2.20;;;29.70;65.40;;;;;;5074342;28;20550;-66
2022/08/07 10:32:25;;;;;;;1.90;1.80;;;29.90;66.20;;;;;;5074260;28;20170;-65
2022/08/07 10:35:18;;;;;;;2.30;2.10;;;30.60;64.50;;;;;;5074232;28;20245;-66
2022/08/07 10:38:08;;;;;;;1.90;1.80;;;31.30;68.80;;;;;;5074119;28;20667;-66
2022/08/07 10:40:49;;;;;;;1.85;1.75;;;31.90;64.30;;;;;;5074027;28;20185;-66
2022/08/07 10:43:18;;;;;;;3.85;2.70;;;32.40;65.70;;;;;;5074107;28;20261;-66
2022/08/07 10:45:48;;;;;;;2.22;1.80;;;33.00;64.40;;;;;;5073444;28;20343;-64
2022/08/07 10:48:32;;;;;;;1.95;1.83;;;33.80;67.00;;;;;;5073942;28;20574;-65
2022/08/07 10:51:08;;;;;;;2.30;1.95;;;34.10;60.20;;;;;;5073762;28;20531;-65
2022/08/07 10:53:42;;;;;;;1.80;1.70;;;33.80;57.40;;;;;;5073728;28;20166;-65
2022/08/07 10:56:35;;;;;;;1.98;1.88;;;33.30;55.80;;;;;;5073778;28;20553;-65
2022/08/07 10:59:19;;;;;;;2.70;2.08;;;33.00;58.20;;;;;;5073767;28;20185;-65
2022/08/07 11:01:55;;;;;;;2.42;2.03;;;32.60;55.60;;;;;;5073741;28;20169;-65
2022/08/07 11:04:52;;;;;;;2.17;2.05;;;31.70;55.90;;;;;;5073380;28;20204;-65
2022/08/07 11:07:48;;;;;;;2.00;1.90;;;31.50;57.50;;;;;;5073939;28;20541;-65
2022/08/07 11:10:33;;;;;;;2.33;2.13;;;31.60;60.00;;;;;;5073769;28;20170;-66
2022/08/07 11:13:13;;;;;;;1.90;1.80;;;32.20;57.00;;;;;;5073355;28;20542;-66
2022/08/07 11:15:43;;;;;;;2.10;2.00;;;32.50;55.10;;;;;;5073187;28;20695;-65
2022/08/07 11:18:18;;;;;;;2.00;1.90;;;32.50;59.00;;;;;;5073440;28;20181;-65
2022/08/07 11:21:28;;;;;;;2.75;2.30;;;33.00;57.20;;;;;;5073207;28;20177;-65
2022/08/07 11:24:02;;;;;;;61.47;55.88;;;33.30;55.80;;;;;;5068503;28;20252;-65
2022/08/07 11:26:48;;;;;;;1.90;1.80;;;33.80;56.10;;;;;;5073272;28;20189;-65
2022/08/07 11:29:35;;;;;;;3.08;2.70;;;34.30;57.30;;;;;;5073369;28;20177;-67
2022/08/07 11:32:15;;;;;;;2.58;2.38;;;34.80;55.10;;;;;;5073165;28;20181;-66
2022/08/07 11:34:43;;;;;;;4.80;4.32;;;34.60;52.80;;;;;;5071091;28;20214;-66
2022/08/07 11:37:35;;;;;;;1.80;1.70;;;34.70;55.50;;;;;;5068478;28;20170;-67
2022/08/07 11:40:26;;;;;;;2.00;1.90;;;34.60;54.60;;;;;;5053140;28;20257;-67
2022/08/07 11:43:18;;;;;;;2.47;2.10;;;34.50;55.70;;;;;;5071125;28;20175;-65
2022/08/07 11:45:49;;;;;;;2.33;2.13;;;34.00;51.10;;;;;;5072588;28;20229;-65
2022/08/07 11:48:39;;;;;;;2.58;2.40;;;33.20;54.00;;;;;;5072986;28;20162;-66
2022/08/07 11:51:24;;;;;;;47.22;42.83;;;32.80;54.80;;;;;;5072961;28;20162;-66
2022/08/07 11:53:59;;;;;;;2.20;2.00;;;32.90;55.50;;;;;;5072166;28;20174;-66
2022/08/07 11:57:05;;;;;;;10.35;9.23;;;33.30;54.10;;;;;;5072914;28;20203;-66
2022/08/07 11:59:57;;;;;;;2.33;2.13;;;33.40;54.50;;;;;;5072555;28;20253;-67
2022/08/07 12:03:00;;;;;;;27.08;21.70;;;33.60;54.00;;;;;;5066880;28;20217;-65
2022/08/07 12:05:50;;;;;;;17.67;9.73;;;33.80;54.30;;;;;;5072187;28;20217;-66
2022/08/07 12:08:39;;;;;;;1.92;1.83;;;33.60;53.60;;;;;;5072790;28;20248;-66
2022/08/07 12:11:29;;;;;;;142.93;96.32;;;33.60;52.90;;;;;;5072493;28;20705;-66
2022/08/07 12:14:16;;;;;;;22.25;13.60;;;32.90;52.20;;;;;;5072106;28;20550;-67
2022/08/07 12:17:01;;;;;;;54.28;48.70;;;32.00;51.50;;;;;;5072663;28;20174;-66
2022/08/07 12:19:44;;;;;;;611.83;551.78;;;31.80;52.50;;;;;;5072844;28;20170;-66
2022/08/07 12:22:20;;;;;;;23.25;21.30;;;32.00;52.70;;;;;;5072456;28;20227;-66
2022/08/07 12:27:49;;;;;;;2.00;1.90;;;32.80;54.20;;;;;;5071485;28;20608;-66
2022/08/07 12:30:16;;;;;;;2.33;2.22;;;32.70;51.60;;;;;;5072124;28;20170;-67
2022/08/07 12:33:04;;;;;;;2.10;2.00;;;32.60;51.40;;;;;;5071814;28;20624;-67
2022/08/07 12:35:32;;;;;;;2.03;1.92;;;32.70;51.80;;;;;;5071983;28;20292;-66
2022/08/07 12:37:59;;;;;;;2.40;2.30;;;32.90;51.60;;;;;;5072111;28;20162;-66
2022/08/07 12:40:28;;;;;;;2.55;2.00;;;33.20;52.40;;;;;;5072268;28;20174;-66
2022/08/07 12:42:58;;;;;;;2.33;2.13;;;33.60;52.90;;;;;;5071884;28;20197;-66
2022/08/07 12:45:51;;;;;;;2.10;2.00;;;33.40;52.70;;;;;;5070506;28;20206;-67
2022/08/07 12:48:40;;;;;;;2.00;1.90;;;33.40;51.00;;;;;;5060683;28;20678;-67
2022/08/07 12:51:17;;;;;;;1.90;1.80;;;33.50;50.80;;;;;;5071842;28;20251;-66
2022/08/07 12:53:56;;;;;;;2.40;2.20;;;33.70;52.40;;;;;;5071628;28;20200;-66
2022/08/07 12:56:30;;;;;;;2.00;1.90;;;33.80;50.40;;;;;;5071884;28;20261;-65
2022/08/07 12:58:58;;;;;;;2.30;2.10;;;33.70;49.70;;;;;;5071639;28;20627;-66
2022/08/07 13:01:45;;;;;;;1.90;1.80;;;33.70;49.10;;;;;;5071992;28;20591;-65
2022/08/07 13:04:29;;;;;;;2.10;1.90;;;33.40;48.60;;;;;;5071353;28;20194;-67
2022/08/07 13:07:25;;;;;;;2.15;2.05;;;32.90;49.20;;;;;;5071697;28;20162;-66
2022/08/07 13:10:16;;;;;;;2.20;2.10;;;33.30;49.00;;;;;;5071984;28;20190;-65
2022/08/07 13:12:53;;;;;;;2.15;2.05;;;33.40;48.50;;;;;;5071466;28;20316;-66
2022/08/07 13:15:42;;;;;;;2.10;2.00;;;33.20;50.80;;;;;;5071991;28;20201;-66
2022/08/07 13:18:17;;;;;;;2.42;2.22;;;33.30;50.70;;;;;;5076010;28;20181;-67
2022/08/07 13:20:49;;;;;;;2.20;2.10;;;33.20;49.10;;;;;;5075548;28;20174;-66
2022/08/07 13:23:48;;;;;;;2.00;1.90;;;32.80;48.50;;;;;;5075628;28;20183;-65
2022/08/07 13:26:18;;;;;;;2.60;2.30;;;32.50;49.60;;;;;;5074192;28;20229;-65
2022/08/07 13:29:14;;;;;;;2.22;2.13;;;32.70;51.80;;;;;;5075574;28;20636;-65